createdAt,value
2022-09-25T00:02:26.392Z,99397.56
2022-09-25T00:05:28.074Z,99396.94
2022-09-25T00:08:29.457Z,99401.38
2022-09-25T00:11:32.802Z,99396.19
2022-09-25T00:14:34.140Z,99402.94
2022-09-25T00:17:35.473Z,99405.66
2022-09-25T00:20:37.568Z,99404.84
2022-09-25T00:23:39.284Z,99396.88
2022-09-25T00:26:42.283Z,99397.78
2022-09-25T00:29:43.722Z,99391.06
2022-09-25T00:32:45.069Z,99393.84
2022-09-25T00:35:46.397Z,99393.28
2022-09-25T00:38:48.859Z,99387.84
2022-09-25T00:41:50.273Z,99388.03
2022-09-25T00:44:56.540Z,99393.69
2022-09-25T00:48:02.745Z,99387.41
2022-09-25T00:51:05.012Z,99384.69
2022-09-25T00:54:07.952Z,99393.31
2022-09-25T00:57:13.399Z,99385.34
2022-09-25T01:00:15.317Z,99382.31
2022-09-25T01:03:16.932Z,99384.13
2022-09-25T01:06:18.702Z,99377.25
2022-09-25T01:09:20.224Z,99376.06
2022-09-25T01:12:22.512Z,99384.41
2022-09-25T01:15:28.649Z,99384.88
2022-09-25T01:18:38.629Z,99384.13
2022-09-25T01:21:49.163Z,99382.69
2022-09-25T01:25:09.074Z,99380.69
2022-09-25T01:28:29.542Z,99378.25
2022-09-25T01:31:36.702Z,99374.25
2022-09-25T01:34:40.543Z,99371.06
2022-09-25T01:37:44.635Z,99376.16
2022-09-25T01:40:53.821Z,99379.78
2022-09-25T01:44:02.194Z,99382.78
2022-09-25T01:47:08.544Z,99388.38
2022-09-25T01:50:13.671Z,99378.31
2022-09-25T01:53:18.210Z,99372.81
2022-09-25T01:56:19.950Z,99366.00
2022-09-25T01:59:36.249Z,99379.25
2022-09-25T02:02:49.542Z,99374.13
2022-09-25T02:05:55.402Z,99368.06
2022-09-25T02:09:11.957Z,99370.88
2022-09-25T02:12:17.931Z,99370.41
2022-09-25T02:15:26.632Z,99371.56
2022-09-25T02:18:47.872Z,99375.31
2022-09-25T02:21:55.177Z,99375.22
2022-09-25T02:24:59.685Z,99372.44
2022-09-25T02:28:01.384Z,99373.44
2022-09-25T02:31:05.430Z,99365.22
2022-09-25T02:34:12.117Z,99359.09
2022-09-25T02:37:16.996Z,99369.00
2022-09-25T02:40:18.864Z,99359.63
2022-09-25T02:43:29.420Z,99370.06
2022-09-25T02:46:37.468Z,99356.53
2022-09-25T02:49:41.764Z,99365.38
2022-09-25T02:52:51.273Z,99367.56
2022-09-25T02:55:57.423Z,99367.81
2022-09-25T02:59:08.840Z,99356.84
2022-09-25T03:02:12.021Z,99373.94
2022-09-25T03:05:14.188Z,99365.72
2022-09-25T03:08:34.811Z,99365.28
2022-09-25T03:11:43.188Z,99360.66
2022-09-25T03:14:44.519Z,99370.13
2022-09-25T03:17:48.141Z,99359.47
2022-09-25T03:20:49.573Z,99368.41
2022-09-25T03:23:50.927Z,99364.66
2022-09-25T03:26:53.919Z,99364.72
2022-09-25T03:29:55.593Z,99364.09
2022-09-25T03:32:59.357Z,99363.66
2022-09-25T03:36:01.792Z,99356.81
2022-09-25T03:39:03.696Z,99354.66
2022-09-25T03:42:05.663Z,99354.56
2022-09-25T03:45:07.447Z,99349.16
2022-09-25T03:48:08.843Z,99350.31
2022-09-25T03:51:10.724Z,99345.34
2022-09-25T03:54:12.194Z,99345.34
2022-09-25T03:57:15.000Z,99348.16
2022-09-25T04:00:16.926Z,99349.59
2022-09-25T04:03:18.254Z,99350.22
2022-09-25T04:06:22.512Z,99353.56
2022-09-25T04:09:23.852Z,99357.78
2022-09-25T04:12:25.240Z,99356.09
2022-09-25T04:15:26.623Z,99365.19
2022-09-25T04:18:31.771Z,99356.81
2022-09-25T04:21:33.216Z,99370.22
2022-09-25T04:24:49.921Z,99371.13
2022-09-25T04:27:52.703Z,99369.72
2022-09-25T04:30:54.040Z,99367.81
2022-09-25T04:33:55.563Z,99372.19
2022-09-25T04:36:56.903Z,99362.84
2022-09-25T04:39:58.440Z,99364.66
2022-09-25T04:43:00.938Z,99370.00
2022-09-25T04:46:02.810Z,99377.19
2022-09-25T04:49:04.208Z,99368.44
2022-09-25T04:52:06.400Z,99373.63
2022-09-25T04:55:07.939Z,99379.72
2022-09-25T04:58:09.876Z,99383.81
2022-09-25T05:01:11.288Z,99374.75
2022-09-25T05:04:14.389Z,99383.28
2022-09-25T05:07:15.873Z,99384.00
2022-09-25T05:10:17.214Z,99385.69
2022-09-25T05:13:18.694Z,99382.00
2022-09-25T05:16:20.101Z,99378.03
2022-09-25T05:19:21.607Z,99380.47
2022-09-25T05:22:23.001Z,99371.38
2022-09-25T05:25:27.992Z,99363.47
2022-09-25T05:28:32.891Z,99378.34
2022-09-25T05:31:34.272Z,99380.66
2022-09-25T05:34:35.708Z,99377.81
2022-09-25T05:37:37.089Z,99372.59
2022-09-25T05:40:39.291Z,99372.38
2022-09-25T05:43:46.689Z,99374.25
2022-09-25T05:46:48.032Z,99378.47
2022-09-25T05:49:49.367Z,99386.47
2022-09-25T05:52:55.452Z,99382.25
2022-09-25T05:55:58.292Z,99377.50
2022-09-25T05:58:59.709Z,99383.97
2022-09-25T06:02:01.101Z,99392.03
2022-09-25T06:05:02.737Z,99386.34
2022-09-25T06:08:04.104Z,99401.56
2022-09-25T06:11:05.818Z,99402.84
2022-09-25T06:14:07.463Z,99389.13
2022-09-25T06:17:08.883Z,99402.94
2022-09-25T06:20:15.891Z,99399.78
2022-09-25T06:23:18.571Z,99403.88
2022-09-25T06:26:19.999Z,99409.13
2022-09-25T06:29:21.372Z,99412.44
2022-09-25T06:32:23.465Z,99408.56
2022-09-25T06:35:24.813Z,99416.28
2022-09-25T06:38:26.131Z,99405.06
2022-09-25T06:41:27.907Z,99407.13
2022-09-25T06:44:29.323Z,99400.78
2022-09-25T06:47:30.664Z,99401.78
2022-09-25T06:50:37.570Z,99405.78
2022-09-25T06:53:38.891Z,99412.50
2022-09-25T06:56:40.215Z,99406.06
2022-09-25T06:59:41.684Z,99410.66
2022-09-25T07:03:01.698Z,99407.94
2022-09-25T07:06:04.416Z,99413.25
2022-09-25T07:09:05.759Z,99410.47
2022-09-25T07:12:07.980Z,99415.91
2022-09-25T07:15:09.366Z,99408.28
2022-09-25T07:18:10.816Z,99413.66
2022-09-25T07:21:15.308Z,99410.56
2022-09-25T07:24:16.643Z,99411.41
2022-09-25T07:27:17.986Z,99410.28
2022-09-25T07:30:19.320Z,99410.28
2022-09-25T07:33:23.130Z,99412.84
2022-09-25T07:36:24.555Z,99407.03
2022-09-25T07:39:25.972Z,99420.66
2022-09-25T07:42:27.323Z,99425.16
2022-09-25T07:45:29.094Z,99426.06
2022-09-25T07:48:31.608Z,99427.44
2022-09-25T07:51:33.004Z,99424.72
2022-09-25T07:54:35.926Z,99422.34
2022-09-25T07:57:37.361Z,99429.19
2022-09-25T08:00:40.605Z,99427.72
2022-09-25T08:03:41.995Z,99426.09
2022-09-25T08:06:43.360Z,99418.03
2022-09-25T08:09:44.923Z,99425.38
2022-09-25T08:12:46.281Z,99419.53
2022-09-25T08:15:48.694Z,99415.00
2022-09-25T08:18:50.356Z,99414.44
2022-09-25T08:21:51.807Z,99414.25
2022-09-25T08:24:53.561Z,99421.44
2022-09-25T08:27:54.952Z,99422.97
2022-09-25T08:30:58.300Z,99413.88
2022-09-25T08:34:09.979Z,99410.50
2022-09-25T08:37:21.469Z,99414.97
2022-09-25T08:40:26.970Z,99418.88
2022-09-25T08:43:28.678Z,99410.44
2022-09-25T08:46:58.096Z,99413.25
2022-09-25T08:50:09.320Z,99411.81
2022-09-25T08:53:36.904Z,99412.25
2022-09-25T08:56:40.336Z,99403.47
2022-09-25T08:59:44.318Z,99409.38
2022-09-25T09:02:48.009Z,99408.19
2022-09-25T09:05:52.198Z,99406.13
2022-09-25T09:08:56.938Z,99407.56
2022-09-25T09:12:05.644Z,99403.25
2022-09-25T09:15:16.307Z,99404.41
2022-09-25T09:18:21.760Z,99407.94
2022-09-25T09:21:41.944Z,99408.78
2022-09-25T09:24:59.915Z,99411.38
2022-09-25T09:28:20.099Z,99411.25
2022-09-25T09:31:30.071Z,99415.03
2022-09-25T09:35:04.076Z,99410.63
2022-09-25T09:38:10.451Z,99408.72
2022-09-25T09:41:17.429Z,99409.31
2022-09-25T09:44:25.446Z,99407.25
2022-09-25T09:47:39.265Z,99410.19
2022-09-25T09:50:46.210Z,99411.16
2022-09-25T09:53:56.949Z,99408.38
2022-09-25T09:57:00.995Z,99410.22
2022-09-25T10:00:05.821Z,99409.69
2022-09-25T10:03:24.398Z,99400.22
2022-09-25T10:06:29.781Z,99403.13
2022-09-25T10:09:31.188Z,99404.53
2022-09-25T10:12:33.672Z,99400.28
2022-09-25T10:15:44.970Z,99396.09
2022-09-25T10:18:49.547Z,99387.16
2022-09-25T10:21:50.912Z,99394.88
2022-09-25T10:24:58.390Z,99393.16
2022-09-25T10:27:59.835Z,99392.72
2022-09-25T10:31:03.084Z,99392.31
2022-09-25T10:34:06.240Z,99393.84
2022-09-25T10:37:20.184Z,99389.59
2022-09-25T10:40:24.250Z,99399.91
2022-09-25T10:43:25.682Z,99400.50
2022-09-25T10:46:48.833Z,99393.41
2022-09-25T10:50:09.201Z,99392.22
2022-09-25T10:53:31.765Z,99394.19
2022-09-25T10:56:36.131Z,99388.00
2022-09-25T10:59:37.521Z,99396.06
2022-09-25T11:02:41.770Z,99389.66
2022-09-25T11:05:49.848Z,99388.06
2022-09-25T11:09:02.966Z,99393.03
2022-09-25T11:12:13.481Z,99396.59
2022-09-25T11:15:18.430Z,99398.34
2022-09-25T11:18:32.066Z,99400.44
2022-09-25T11:21:39.562Z,99395.22
2022-09-25T11:25:04.021Z,99407.25
2022-09-25T11:28:17.925Z,99407.63
2022-09-25T11:31:32.235Z,99406.50
2022-09-25T11:35:00.424Z,99402.56
2022-09-25T11:38:02.637Z,99408.06
2022-09-25T11:41:18.613Z,99403.13
2022-09-25T11:44:27.541Z,99404.44
2022-09-25T11:47:43.329Z,99407.69
2022-09-25T11:50:58.294Z,99410.16
2022-09-25T11:54:33.206Z,99410.28
2022-09-25T11:57:38.585Z,99403.19
2022-09-25T12:01:01.112Z,99406.06
2022-09-25T12:04:14.802Z,99416.59
2022-09-25T12:07:29.969Z,99405.81
2022-09-25T12:10:43.797Z,99407.19
2022-09-25T12:13:45.585Z,99402.28
2022-09-25T12:16:52.803Z,99410.06
2022-09-25T12:20:04.891Z,99399.19
2022-09-25T12:23:14.190Z,99398.50
2022-09-25T12:26:15.853Z,99390.34
2022-09-25T12:29:26.029Z,99389.97
2022-09-25T12:32:42.694Z,99389.03
2022-09-25T12:35:44.174Z,99387.84
2022-09-25T12:38:55.270Z,99384.66
2022-09-25T12:42:03.414Z,99382.81
2022-09-25T12:45:25.075Z,99375.06
2022-09-25T12:48:31.605Z,99378.63
2022-09-25T12:51:40.891Z,99383.81
2022-09-25T12:55:00.131Z,99386.09
2022-09-25T12:58:12.338Z,99380.44
2022-09-25T13:01:25.911Z,99376.00
2022-09-25T13:04:42.073Z,99366.81
2022-09-25T13:07:49.503Z,99366.66
2022-09-25T13:10:57.790Z,99365.56
2022-09-25T13:14:01.836Z,99366.22
2022-09-25T13:17:03.355Z,99365.03
2022-09-25T13:20:42.138Z,99371.66
2022-09-25T13:23:43.546Z,99369.91
2022-09-25T13:26:50.708Z,99370.06
2022-09-25T13:29:54.306Z,99360.94
2022-09-25T13:32:57.224Z,99359.59
2022-09-25T13:36:23.234Z,99360.88
2022-09-25T13:39:49.586Z,99360.09
2022-09-25T13:42:50.963Z,99361.13
2022-09-25T13:46:26.053Z,99357.09
2022-09-25T13:49:34.278Z,99361.16
2022-09-25T13:52:38.679Z,99352.06
2022-09-25T13:55:41.755Z,99363.03
2022-09-25T13:58:59.848Z,99354.81
2022-09-25T14:02:24.606Z,99350.88
2022-09-25T14:05:27.172Z,99341.50
2022-09-25T14:08:31.070Z,99346.63
2022-09-25T14:11:33.390Z,99340.53
2022-09-25T14:14:52.734Z,99337.63
2022-09-25T14:17:55.816Z,99340.50
2022-09-25T14:20:57.864Z,99333.84
2022-09-25T14:24:11.822Z,99335.97
2022-09-25T14:27:19.738Z,99342.34
2022-09-25T14:30:21.132Z,99333.31
2022-09-25T14:33:43.832Z,99330.31
2022-09-25T14:37:03.256Z,99330.56
2022-09-25T14:40:23.582Z,99326.72
2022-09-25T14:43:45.137Z,99329.94
2022-09-25T14:46:49.664Z,99317.19
2022-09-25T14:49:53.290Z,99325.78
2022-09-25T14:52:58.129Z,99329.66
2022-09-25T14:56:02.101Z,99336.34
2022-09-25T14:59:10.218Z,99338.34
2022-09-25T15:02:17.519Z,99361.28
2022-09-25T15:05:22.967Z,99364.63
2022-09-25T15:08:36.673Z,99362.38
2022-09-25T15:11:40.033Z,99365.16
2022-09-25T15:14:56.277Z,99372.25
2022-09-25T15:17:59.403Z,99359.97
2022-09-25T15:21:01.451Z,99366.19
2022-09-25T15:24:04.744Z,99371.19
2022-09-25T15:27:07.034Z,99364.28
2022-09-25T15:30:14.170Z,99366.19
2022-09-25T15:33:23.095Z,99365.31
2022-09-25T15:36:24.395Z,99368.03
2022-09-25T15:39:27.769Z,99364.13
2022-09-25T15:42:29.076Z,99356.22
2022-09-25T15:45:35.625Z,99365.50
2022-09-25T15:48:38.917Z,99365.88
2022-09-25T15:51:52.822Z,99363.25
2022-09-25T15:55:00.020Z,99362.53
2022-09-25T15:58:07.152Z,99361.50
2022-09-25T16:01:31.075Z,99356.69
2022-09-25T16:04:49.362Z,99357.41
2022-09-25T16:07:50.971Z,99359.47
2022-09-25T16:11:11.131Z,99366.81
2022-09-25T16:14:20.030Z,99358.16
2022-09-25T16:17:32.967Z,99365.19
2022-09-25T16:20:36.053Z,99368.41
2022-09-25T16:23:38.517Z,99371.19
2022-09-25T16:26:41.920Z,99370.94
2022-09-25T16:29:43.828Z,99374.94
2022-09-25T16:32:50.917Z,99368.00
2022-09-25T16:36:10.516Z,99367.44
2022-09-25T16:39:32.536Z,99369.97
2022-09-25T16:42:39.477Z,99368.91
2022-09-25T16:45:57.583Z,99373.28
2022-09-25T16:49:00.766Z,99382.00
2022-09-25T16:52:04.650Z,99383.47
2022-09-25T16:55:10.102Z,99379.19
2022-09-25T16:58:11.455Z,99380.44
2022-09-25T17:01:12.911Z,99387.56
2022-09-25T17:04:15.744Z,99382.91
2022-09-25T17:07:17.319Z,99387.34
2022-09-25T17:10:23.392Z,99389.78
2022-09-25T17:13:27.220Z,99381.63
2022-09-25T17:16:28.637Z,99401.66
2022-09-25T17:19:30.053Z,99399.50
2022-09-25T17:22:31.429Z,99397.84
2022-09-25T17:25:38.244Z,99400.38
2022-09-25T17:28:39.765Z,99397.91
2022-09-25T17:31:41.326Z,99401.75
2022-09-25T17:34:44.109Z,99393.38
2022-09-25T17:37:45.540Z,99406.19
2022-09-25T17:40:47.817Z,99398.75
2022-09-25T17:43:50.219Z,99401.56
2022-09-25T17:46:51.957Z,99402.09
2022-09-25T17:49:53.452Z,99405.81
2022-09-25T17:52:54.797Z,99412.34
2022-09-25T17:55:56.804Z,99411.53
2022-09-25T17:58:58.209Z,99415.91
2022-09-25T18:01:59.860Z,99413.91
2022-09-25T18:05:02.470Z,99422.00
2022-09-25T18:08:03.967Z,99430.81
2022-09-25T18:11:05.412Z,99430.53
2022-09-25T18:14:06.721Z,99435.34
2022-09-25T18:17:08.079Z,99447.63
2022-09-25T18:20:31.277Z,99444.16
2022-09-25T18:23:34.094Z,99443.16
2022-09-25T18:26:35.418Z,99447.25
2022-09-25T18:29:37.375Z,99448.03
2022-09-25T18:32:38.682Z,99447.22
2022-09-25T18:35:40.967Z,99457.41
2022-09-25T18:38:42.291Z,99449.53
2022-09-25T18:41:43.952Z,99454.03
2022-09-25T18:44:45.298Z,99443.00
2022-09-25T18:47:46.769Z,99454.22
2022-09-25T18:50:49.000Z,99466.81
2022-09-25T18:53:51.876Z,99462.09
2022-09-25T18:56:54.640Z,99464.72
2022-09-25T18:59:56.043Z,99474.97
2022-09-25T19:02:57.536Z,99477.81
2022-09-25T19:06:01.315Z,99481.22
2022-09-25T19:09:04.640Z,99477.97
2022-09-25T19:12:07.208Z,99488.69
2022-09-25T19:15:08.901Z,99480.47
2022-09-25T19:18:10.764Z,99482.91
2022-09-25T19:21:13.555Z,99486.66
2022-09-25T19:24:15.240Z,99481.50
2022-09-25T19:27:16.855Z,99489.28
2022-09-25T19:30:18.181Z,99485.03
2022-09-25T19:33:19.900Z,99490.00
2022-09-25T19:36:25.507Z,99492.50
2022-09-25T19:39:27.228Z,99489.09
2022-09-25T19:42:30.533Z,99494.72
2022-09-25T19:45:31.885Z,99493.91
2022-09-25T19:48:33.526Z,99493.44
2022-09-25T19:51:34.899Z,99500.16
2022-09-25T19:54:36.348Z,99505.63
2022-09-25T19:57:37.921Z,99499.28
2022-09-25T20:00:40.367Z,99506.94
2022-09-25T20:03:41.895Z,99504.50
2022-09-25T20:06:43.294Z,99512.59
2022-09-25T20:09:44.657Z,99505.03
2022-09-25T20:12:46.124Z,99501.81
2022-09-25T20:15:48.102Z,99503.66
2022-09-25T20:18:50.873Z,99502.66
2022-09-25T20:21:52.955Z,99498.13
2022-09-25T20:24:54.293Z,99496.59
2022-09-25T20:27:55.852Z,99500.69
2022-09-25T20:30:57.243Z,99500.75
2022-09-25T20:33:58.583Z,99500.34
2022-09-25T20:37:00.208Z,99504.78
2022-09-25T20:40:01.604Z,99495.47
2022-09-25T20:43:03.076Z,99489.56
2022-09-25T20:46:05.924Z,99481.69
2022-09-25T20:49:08.626Z,99482.69
2022-09-25T20:52:11.432Z,99479.13
2022-09-25T20:55:12.779Z,99479.88
2022-09-25T20:58:14.129Z,99479.56
2022-09-25T21:01:17.097Z,99477.00
2022-09-25T21:04:18.572Z,99480.78
2022-09-25T21:07:20.596Z,99479.13
2022-09-25T21:10:21.972Z,99479.50
2022-09-25T21:13:23.399Z,99472.09
2022-09-25T21:16:26.155Z,99476.81
2022-09-25T21:19:28.307Z,99468.56
2022-09-25T21:22:29.705Z,99465.31
2022-09-25T21:25:32.484Z,99466.63
2022-09-25T21:28:34.083Z,99456.81
2022-09-25T21:31:37.639Z,99458.22
2022-09-25T21:34:38.944Z,99449.25
2022-09-25T21:37:40.285Z,99449.66
2022-09-25T21:40:42.759Z,99462.66
2022-09-25T21:43:44.511Z,99454.78
2022-09-25T21:46:46.069Z,99462.34
2022-09-25T21:49:47.493Z,99460.16
2022-09-25T21:52:48.859Z,99462.22
2022-09-25T21:55:58.951Z,99467.31
2022-09-25T21:59:08.435Z,99463.81
2022-09-25T22:02:10.552Z,99465.13
2022-09-25T22:05:11.967Z,99467.28
2022-09-25T22:08:13.277Z,99472.22
2022-09-25T22:11:15.196Z,99477.00
2022-09-25T22:14:17.312Z,99485.22
2022-09-25T22:17:18.666Z,99478.13
2022-09-25T22:20:20.071Z,99477.06
2022-09-25T22:23:22.136Z,99470.59
2022-09-25T22:26:24.131Z,99465.44
2022-09-25T22:29:25.513Z,99456.81
2022-09-25T22:32:26.831Z,99464.81
2022-09-25T22:35:28.151Z,99458.19
2022-09-25T22:38:30.122Z,99452.28
2022-09-25T22:41:31.576Z,99442.09
2022-09-25T22:44:34.003Z,99450.66
2022-09-25T22:47:35.343Z,99446.09
2022-09-25T22:50:36.664Z,99452.59
2022-09-25T22:53:38.619Z,99443.72
2022-09-25T22:56:40.025Z,99447.47
2022-09-25T22:59:41.397Z,99452.53
2022-09-25T23:02:42.771Z,99447.59
2022-09-25T23:05:44.504Z,99452.16
2022-09-25T23:08:50.248Z,99458.75
2022-09-25T23:11:52.452Z,99451.41
2022-09-25T23:14:54.073Z,99452.13
2022-09-25T23:17:56.013Z,99442.00
2022-09-25T23:20:57.433Z,99433.44
2022-09-25T23:24:00.477Z,99431.78
2022-09-25T23:27:01.997Z,99427.19
2022-09-25T23:30:03.665Z,99431.84
2022-09-25T23:33:05.072Z,99435.59
2022-09-25T23:36:08.029Z,99431.97
2022-09-25T23:39:14.038Z,99430.41
2022-09-25T23:42:15.424Z,99432.03
2022-09-25T23:45:16.898Z,99424.25
2022-09-25T23:48:18.349Z,99436.84
2022-09-25T23:51:20.613Z,99423.44
2022-09-25T23:54:21.989Z,99419.78
2022-09-25T23:57:23.868Z,99424.06
